Time;durP1;ratioP1;P1;durP2;ratioP2;P2;SDS_P1;SDS_P2;PMS_P1;PMS_P2;Temp;Humidity;BMP_temperature;BMP_pressure;BME280_temperature;BME280_humidity;BME280_pressure;Samples;Min_cycle;Max_cycle;Signal;HPM_P1;HPM_P2
2021/11/22 00:00:51;;;;;;;0.87;0.87;;;4.20;99.90;;;;;;5033395;28;20467;-86
2021/11/22 00:03:20;;;;;;;0.47;0.47;;;4.30;99.90;;;;;;5034088;28;20447;-84
2021/11/22 00:05:47;;;;;;;1.07;1.07;;;4.30;99.90;;;;;;5032945;28;20451;-84
2021/11/22 00:08:14;;;;;;;0.60;0.50;;;4.30;99.90;;;;;;5033007;28;20748;-84
2021/11/22 00:10:40;;;;;;;0.30;0.20;;;4.30;99.90;;;;;;5033255;28;20450;-84
2021/11/22 00:13:07;;;;;;;0.30;0.30;;;4.20;99.90;;;;;;5033206;28;20439;-84
2021/11/22 00:15:35;;;;;;;0.40;0.40;;;4.30;99.90;;;;;;5032826;28;20478;-84
2021/11/22 00:18:02;;;;;;;0.60;0.60;;;4.30;99.90;;;;;;5034664;28;20443;-84
2021/11/22 00:20:29;;;;;;;1.00;0.97;;;4.30;99.90;;;;;;5037197;28;20458;-84
2021/11/22 00:22:56;;;;;;;0.50;0.50;;;4.30;99.90;;;;;;5037132;28;20437;-81
2021/11/22 00:25:23;;;;;;;0.40;0.30;;;4.30;99.90;;;;;;5037082;28;20511;-81
2021/11/22 00:27:51;;;;;;;0.30;0.30;;;4.30;99.90;;;;;;5037788;28;20466;-88
2021/11/22 00:30:18;;;;;;;0.30;0.30;;;4.30;99.90;;;;;;5037886;28;20493;-89
2021/11/22 00:32:46;;;;;;;0.40;0.30;;;4.30;99.90;;;;;;5038048;28;20454;-88
2021/11/22 00:35:14;;;;;;;0.90;0.83;;;4.20;99.90;;;;;;5037892;28;20561;-89
2021/11/22 00:37:43;;;;;;;0.40;0.40;;;4.20;99.90;;;;;;5037358;28;20799;-81
2021/11/22 00:40:13;;;;;;;0.30;0.20;;;4.20;99.90;;;;;;5036876;28;20443;-81
2021/11/22 00:42:43;;;;;;;1.27;0.73;;;4.20;99.90;;;;;;5036721;28;20482;-81
2021/11/22 00:45:10;;;;;;;0.37;0.33;;;4.30;99.90;;;;;;5036705;28;20469;-81
2021/11/22 00:47:37;;;;;;;0.30;0.20;;;4.30;99.90;;;;;;5036719;28;20447;-81
2021/11/22 00:50:07;;;;;;;0.40;0.30;;;4.30;99.90;;;;;;5036695;28;20537;-81
2021/11/22 00:52:34;;;;;;;0.40;0.40;;;4.40;99.90;;;;;;5036793;28;20451;-81
2021/11/22 00:55:01;;;;;;;0.50;0.50;;;4.40;99.90;;;;;;5036491;28;20470;-81
2021/11/22 00:57:28;;;;;;;0.30;0.30;;;4.50;99.90;;;;;;5036396;28;20941;-81
2021/11/22 00:59:54;;;;;;;2.00;0.40;;;4.50;99.90;;;;;;5036072;28;20486;-85
2021/11/22 01:02:22;;;;;;;0.40;0.40;;;4.50;99.90;;;;;;5036473;28;20486;-86
2021/11/22 01:04:49;;;;;;;0.50;0.50;;;4.50;99.90;;;;;;5036130;28;20474;-86
2021/11/22 01:07:17;;;;;;;3.23;0.50;;;4.40;99.90;;;;;;5036530;28;20454;-86
2021/11/22 01:09:44;;;;;;;1.23;0.93;;;4.40;99.90;;;;;;5036380;28;20450;-85
2021/11/22 01:12:11;;;;;;;0.30;0.30;;;4.40;99.90;;;;;;5036379;28;20446;-86
2021/11/22 01:14:37;;;;;;;0.80;0.80;;;4.40;99.90;;;;;;5035910;28;20473;-85
2021/11/22 01:17:05;;;;;;;2.30;0.70;;;4.40;99.90;;;;;;5036461;28;20455;-86
2021/11/22 01:19:31;;;;;;;0.40;0.40;;;4.40;99.90;;;;;;5036305;28;20807;-85
2021/11/22 01:21:58;;;;;;;0.53;0.47;;;4.40;99.90;;;;;;5036140;28;20482;-86
2021/11/22 01:24:26;;;;;;;1.37;0.80;;;4.40;99.90;;;;;;5036051;28;20474;-86
2021/11/22 01:26:53;;;;;;;0.30;0.20;;;4.40;99.90;;;;;;5036044;28;20858;-85
2021/11/22 01:29:20;;;;;;;0.43;0.43;;;4.40;99.90;;;;;;5036023;28;20469;-85
2021/11/22 01:31:47;;;;;;;0.30;0.30;;;4.40;99.90;;;;;;5035748;28;20943;-85
2021/11/22 01:34:13;;;;;;;0.30;0.30;;;4.40;99.90;;;;;;5035925;28;20458;-86
2021/11/22 01:36:40;;;;;;;0.30;0.30;;;4.30;99.90;;;;;;5036107;28;20972;-86
2021/11/22 01:39:07;;;;;;;0.30;0.30;;;4.40;99.90;;;;;;5036005;28;20455;-86
2021/11/22 01:41:35;;;;;;;0.30;0.30;;;4.40;99.90;;;;;;5035799;28;20842;-85
2021/11/22 01:44:02;;;;;;;0.90;0.50;;;4.40;99.90;;;;;;5035782;28;20471;-86
2021/11/22 01:46:29;;;;;;;1.90;1.80;;;4.40;99.90;;;;;;5035790;28;20575;-86
2021/11/22 01:48:56;;;;;;;0.87;0.87;;;4.40;99.90;;;;;;5035452;28;20438;-85
2021/11/22 01:51:23;;;;;;;0.40;0.30;;;4.40;99.90;;;;;;5035599;28;20454;-85
2021/11/22 01:53:50;;;;;;;2.60;0.90;;;4.40;99.90;;;;;;5035504;28;20450;-85
2021/11/22 01:56:17;;;;;;;0.30;0.30;;;4.40;99.90;;;;;;5035608;28;20457;-88
2021/11/22 01:58:45;;;;;;;0.30;0.20;;;4.40;99.90;;;;;;5035835;28;20478;-88
2021/11/22 02:01:12;;;;;;;1.63;1.53;;;4.40;99.90;;;;;;5036098;28;20462;-88
2021/11/22 02:03:39;;;;;;;1.43;1.43;;;4.40;99.90;;;;;;5035981;28;20431;-88
2021/11/22 02:06:06;;;;;;;0.30;0.30;;;4.40;99.90;;;;;;5035999;28;20438;-88
2021/11/22 02:08:33;;;;;;;0.73;0.60;;;4.30;99.90;;;;;;5035455;28;20780;-86
2021/11/22 02:10:59;;;;;;;0.67;0.67;;;4.20;99.90;;;;;;5035047;28;20950;-86
2021/11/22 02:13:26;;;;;;;0.40;0.40;;;4.20;99.90;;;;;;5035199;28;20450;-86
2021/11/22 02:15:54;;;;;;;0.43;0.43;;;4.20;99.90;;;;;;5035155;28;20462;-86
2021/11/22 02:18:21;;;;;;;0.57;0.57;;;4.20;99.90;;;;;;5035758;28;20816;-86
2021/11/22 02:20:51;;;;;;;0.50;0.50;;;4.20;99.90;;;;;;5035166;28;20438;-86
2021/11/22 02:23:19;;;;;;;0.60;0.60;;;4.30;99.90;;;;;;5035096;28;20977;-86
2021/11/22 02:25:46;;;;;;;0.67;0.67;;;4.30;99.90;;;;;;5034636;28;20997;-86
2021/11/22 02:28:14;;;;;;;0.30;0.30;;;4.30;99.90;;;;;;5034911;28;20453;-86
2021/11/22 02:30:43;;;;;;;0.67;0.43;;;4.30;99.90;;;;;;5034906;28;20477;-85
2021/11/22 02:33:13;;;;;;;0.60;0.60;;;4.30;99.90;;;;;;5035006;28;20462;-86
2021/11/22 02:35:44;;;;;;;0.30;0.30;;;4.30;99.90;;;;;;5034899;28;20478;-84
2021/11/22 02:38:12;;;;;;;0.70;0.70;;;4.20;99.90;;;;;;5034719;28;20438;-84
2021/11/22 02:40:39;;;;;;;0.30;0.30;;;4.30;99.90;;;;;;5033837;28;20950;-84
2021/11/22 02:43:05;;;;;;;2.00;1.90;;;4.30;99.90;;;;;;5035572;28;20482;-88
2021/11/22 02:45:32;;;;;;;0.60;0.47;;;4.30;99.90;;;;;;5035154;28;20458;-88
2021/11/22 02:47:59;;;;;;;1.90;0.87;;;4.30;99.90;;;;;;5035068;28;20862;-84
2021/11/22 02:50:26;;;;;;;0.50;0.50;;;4.20;99.90;;;;;;5034396;28;20450;-84
2021/11/22 02:52:53;;;;;;;0.60;0.60;;;4.30;99.90;;;;;;5034392;28;20451;-85
2021/11/22 02:55:22;;;;;;;0.90;0.90;;;4.30;99.90;;;;;;5034158;28;20470;-85
2021/11/22 02:57:49;;;;;;;0.73;0.73;;;4.40;99.90;;;;;;5034152;28;20497;-85
2021/11/22 03:00:21;;;;;;;1.80;1.70;;;4.30;99.90;;;;;;5034090;28;20419;-85
2021/11/22 03:02:48;;;;;;;0.30;0.30;;;4.20;99.90;;;;;;5034237;28;20470;-85
2021/11/22 03:05:15;;;;;;;0.80;0.80;;;4.20;99.90;;;;;;5034124;28;20471;-85
2021/11/22 03:07:44;;;;;;;0.47;0.47;;;4.20;99.90;;;;;;5034115;28;20439;-85
2021/11/22 03:10:15;;;;;;;0.50;0.50;;;4.20;99.90;;;;;;5034077;28;20454;-85
2021/11/22 03:12:44;;;;;;;0.40;0.40;;;4.20;99.90;;;;;;5034095;28;20438;-85
2021/11/22 03:15:14;;;;;;;0.50;0.50;;;4.20;99.90;;;;;;5034010;28;20467;-85
2021/11/22 03:17:42;;;;;;;0.30;0.30;;;4.20;99.90;;;;;;5034316;28;20462;-85
2021/11/22 03:20:11;;;;;;;0.30;0.30;;;4.10;99.90;;;;;;5033746;28;20954;-85
2021/11/22 03:22:38;;;;;;;0.50;0.50;;;4.20;99.90;;;;;;5033841;28;20470;-85
2021/11/22 03:25:07;;;;;;;0.30;0.30;;;4.10;99.90;;;;;;5033793;28;20493;-86
2021/11/22 03:27:35;;;;;;;0.30;0.30;;;4.10;99.90;;;;;;5033827;28;20450;-85
2021/11/22 03:30:04;;;;;;;0.77;0.77;;;4.10;99.90;;;;;;5033770;28;20813;-85
2021/11/22 03:32:31;;;;;;;1.43;1.43;;;4.10;99.90;;;;;;5033698;28;20442;-86
2021/11/22 03:34:58;;;;;;;0.40;0.30;;;4.10;99.90;;;;;;5033640;28;20466;-86
2021/11/22 03:37:25;;;;;;;0.30;0.30;;;4.10;99.90;;;;;;5033390;28;20961;-85
2021/11/22 03:39:52;;;;;;;1.20;1.20;;;4.20;99.90;;;;;;5033862;28;20790;-85
2021/11/22 03:42:21;;;;;;;0.40;0.30;;;4.20;99.90;;;;;;5033611;28;20489;-86
2021/11/22 03:44:48;;;;;;;0.30;0.30;;;4.20;99.90;;;;;;5033453;28;20474;-85
2021/11/22 03:47:16;;;;;;;0.30;0.20;;;4.20;99.90;;;;;;5033524;28;20447;-85
2021/11/22 03:49:44;;;;;;;0.93;0.40;;;4.10;99.90;;;;;;5033620;28;20446;-85
2021/11/22 03:52:11;;;;;;;0.30;0.20;;;4.30;99.90;;;;;;5032861;28;20442;-85
2021/11/22 03:54:37;;;;;;;0.40;0.40;;;4.20;99.90;;;;;;5032638;28;20467;-84
2021/11/22 03:57:05;;;;;;;0.30;0.30;;;4.20;99.90;;;;;;5033482;28;20446;-85
2021/11/22 03:59:32;;;;;;;0.40;0.30;;;4.20;99.90;;;;;;5033088;28;20552;-86
2021/11/22 04:01:59;;;;;;;0.40;0.40;;;4.20;99.90;;;;;;5033099;28;20450;-85
2021/11/22 04:04:27;;;;;;;2.70;2.50;;;4.20;99.90;;;;;;5033241;28;20474;-85
2021/11/22 04:06:53;;;;;;;0.30;0.20;;;4.20;99.90;;;;;;5033295;28;20447;-85
2021/11/22 04:09:20;;;;;;;0.50;0.40;;;4.10;99.90;;;;;;5033042;28;20955;-85
2021/11/22 04:11:47;;;;;;;0.47;0.47;;;4.10;99.90;;;;;;5033018;28;20961;-86
2021/11/22 04:14:14;;;;;;;0.80;0.77;;;4.20;99.90;;;;;;5033215;28;20470;-85
2021/11/22 04:16:40;;;;;;;0.57;0.50;;;4.20;99.90;;;;;;5033247;28;20442;-85
2021/11/22 04:19:08;;;;;;;0.30;0.30;;;4.20;99.90;;;;;;5033250;28;20454;-85
2021/11/22 04:21:36;;;;;;;1.70;0.70;;;4.20;99.90;;;;;;5032910;28;20541;-85
2021/11/22 04:24:03;;;;;;;0.50;0.50;;;4.10;99.90;;;;;;5032777;28;20493;-85
2021/11/22 04:26:31;;;;;;;0.30;0.30;;;4.10;99.90;;;;;;5033218;28;20465;-86
2021/11/22 04:28:58;;;;;;;0.30;0.30;;;4.10;99.90;;;;;;5033150;28;20810;-85
2021/11/22 04:31:25;;;;;;;0.70;0.70;;;4.10;99.90;;;;;;5033220;28;20455;-85
2021/11/22 04:33:52;;;;;;;1.03;0.60;;;4.10;99.90;;;;;;5032816;28;20435;-85
2021/11/22 04:36:19;;;;;;;0.70;0.70;;;4.10;99.90;;;;;;5032757;28;20447;-85
2021/11/22 04:38:47;;;;;;;0.33;0.33;;;4.10;99.90;;;;;;5032746;28;20954;-86
2021/11/22 04:41:14;;;;;;;3.50;0.57;;;4.10;99.90;;;;;;5033218;28;20458;-84
2021/11/22 04:43:41;;;;;;;0.30;0.30;;;4.10;99.90;;;;;;5032819;28;20486;-84
2021/11/22 04:46:07;;;;;;;0.30;0.30;;;4.10;99.90;;;;;;5033186;28;20450;-84
2021/11/22 04:48:34;;;;;;;0.70;0.70;;;4.10;99.90;;;;;;5032871;28;20991;-87
2021/11/22 04:51:01;;;;;;;0.30;0.30;;;4.10;99.90;;;;;;5033255;28;20439;-87
2021/11/22 04:53:28;;;;;;;0.60;0.50;;;4.10;99.90;;;;;;5032988;28;20446;-84
2021/11/22 04:55:56;;;;;;;0.30;0.20;;;4.10;99.90;;;;;;5032796;28;20478;-84
2021/11/22 04:58:23;;;;;;;0.30;0.30;;;4.10;99.90;;;;;;5032518;28;20474;-84
2021/11/22 05:00:50;;;;;;;0.40;0.30;;;4.20;99.90;;;;;;5032637;28;20439;-84
2021/11/22 05:03:17;;;;;;;0.30;0.30;;;4.20;99.90;;;;;;5033261;28;20474;-84
2021/11/22 05:05:43;;;;;;;0.30;0.20;;;4.20;99.90;;;;;;5035860;28;20467;-84
2021/11/22 05:08:10;;;;;;;0.30;0.30;;;4.20;99.90;;;;;;5036412;28;20446;-84
2021/11/22 05:10:39;;;;;;;0.40;0.30;;;4.10;99.90;;;;;;5036339;28;20545;-84
2021/11/22 05:13:08;;;;;;;0.50;0.50;;;4.20;99.90;;;;;;5036607;28;20807;-83
2021/11/22 05:15:36;;;;;;;0.30;0.30;;;4.20;99.90;;;;;;5036161;28;20479;-81
2021/11/22 05:18:04;;;;;;;0.30;0.30;;;4.10;99.90;;;;;;5035874;28;20451;-80
2021/11/22 05:20:31;;;;;;;0.30;0.30;;;4.20;99.90;;;;;;5036360;28;20801;-80
2021/11/22 05:22:58;;;;;;;0.30;0.30;;;4.20;99.90;;;;;;5035755;28;20474;-80
2021/11/22 05:25:25;;;;;;;0.30;0.30;;;4.20;99.90;;;;;;5036006;28;20829;-80
2021/11/22 05:27:52;;;;;;;0.60;0.60;;;4.20;99.90;;;;;;5035759;28;20435;-80
2021/11/22 05:30:22;;;;;;;1.00;0.80;;;4.20;99.90;;;;;;5035920;28;20454;-80
2021/11/22 05:32:49;;;;;;;0.40;0.30;;;4.20;99.90;;;;;;5036194;28;20435;-80
2021/11/22 05:35:16;;;;;;;0.30;0.30;;;4.10;99.90;;;;;;5035825;28;20540;-80
2021/11/22 05:37:43;;;;;;;0.30;0.30;;;4.20;99.90;;;;;;5035832;28;20451;-77
2021/11/22 05:40:10;;;;;;;1.17;0.40;;;4.20;99.90;;;;;;5035506;28;20435;-81
2021/11/22 05:42:37;;;;;;;0.33;0.30;;;4.10;99.90;;;;;;5035662;28;20483;-80
2021/11/22 05:45:05;;;;;;;0.30;0.30;;;4.20;99.90;;;;;;5035454;28;20477;-80
2021/11/22 05:47:33;;;;;;;0.40;0.40;;;4.20;99.90;;;;;;5035719;28;20465;-80
2021/11/22 05:50:04;;;;;;;0.30;0.30;;;4.20;99.90;;;;;;5035576;28;20431;-80
2021/11/22 05:52:32;;;;;;;0.30;0.20;;;4.20;99.90;;;;;;5035268;28;20439;-80
2021/11/22 05:54:59;;;;;;;0.57;0.57;;;4.20;99.90;;;;;;5035678;28;20471;-80
2021/11/22 05:57:26;;;;;;;0.37;0.37;;;4.20;99.90;;;;;;5035541;28;20454;-81
2021/11/22 05:59:53;;;;;;;0.43;0.43;;;4.20;99.90;;;;;;5035013;28;20486;-80
2021/11/22 06:02:20;;;;;;;0.30;0.20;;;4.20;99.90;;;;;;5035327;28;20451;-80
2021/11/22 06:04:48;;;;;;;0.30;0.30;;;4.20;99.90;;;;;;5035286;28;20470;-80
2021/11/22 06:07:15;;;;;;;0.50;0.50;;;4.20;99.90;;;;;;5035326;28;20443;-80
2021/11/22 06:09:42;;;;;;;0.87;0.87;;;4.20;99.90;;;;;;5035197;28;20462;-80
2021/11/22 06:12:09;;;;;;;0.30;0.30;;;4.20;99.90;;;;;;5035450;28;20450;-80
2021/11/22 06:14:36;;;;;;;0.50;0.50;;;4.20;99.90;;;;;;5035117;28;20564;-80
2021/11/22 06:17:03;;;;;;;0.30;0.30;;;4.20;99.90;;;;;;5033933;28;20516;-80
2021/11/22 06:19:30;;;;;;;0.70;0.70;;;4.20;99.90;;;;;;5035021;28;20451;-80
2021/11/22 06:21:58;;;;;;;0.50;0.50;;;4.20;99.90;;;;;;5035011;28;20435;-81
2021/11/22 06:24:25;;;;;;;0.50;0.50;;;4.20;99.90;;;;;;5035025;28;20491;-82
2021/11/22 06:26:54;;;;;;;1.07;1.07;;;4.20;99.90;;;;;;5035128;28;20456;-83
2021/11/22 06:29:21;;;;;;;0.30;0.20;;;4.20;99.90;;;;;;5034987;28;20451;-83
2021/11/22 06:31:49;;;;;;;0.40;0.40;;;4.20;99.90;;;;;;5035044;28;20450;-83
2021/11/22 06:34:16;;;;;;;0.53;0.50;;;4.20;99.90;;;;;;5034657;28;20520;-83
2021/11/22 06:36:42;;;;;;;0.40;0.40;;;4.20;99.90;;;;;;5034362;28;20962;-83
2021/11/22 06:39:10;;;;;;;0.30;0.20;;;4.20;99.90;;;;;;5034326;28;20950;-83
2021/11/22 06:41:37;;;;;;;0.30;0.30;;;4.30;99.90;;;;;;5034849;28;20525;-83
2021/11/22 06:44:05;;;;;;;0.30;0.30;;;4.30;99.90;;;;;;5034349;28;20490;-81
2021/11/22 06:46:31;;;;;;;0.50;0.50;;;4.30;99.90;;;;;;5034667;28;20435;-81
2021/11/22 06:48:59;;;;;;;0.30;0.30;;;4.30;99.90;;;;;;5034509;28;20443;-85
2021/11/22 06:51:26;;;;;;;0.30;0.30;;;4.30;99.90;;;;;;5034125;28;20992;-86
2021/11/22 06:53:52;;;;;;;0.40;0.40;;;4.30;99.90;;;;;;5034013;28;20457;-86
2021/11/22 06:56:20;;;;;;;0.40;0.30;;;4.30;99.90;;;;;;5034363;28;20451;-86
2021/11/22 06:58:47;;;;;;;0.30;0.30;;;4.30;99.90;;;;;;5034232;28;20493;-86
2021/11/22 07:01:14;;;;;;;0.50;0.50;;;4.40;99.90;;;;;;5034219;28;20454;-85
2021/11/22 07:03:41;;;;;;;0.30;0.30;;;4.40;99.90;;;;;;5034142;28;20478;-86
2021/11/22 07:06:08;;;;;;;0.30;0.30;;;4.40;99.90;;;;;;5034200;28;20451;-86
2021/11/22 07:08:35;;;;;;;0.30;0.30;;;4.40;99.90;;;;;;5033777;28;20935;-86
2021/11/22 07:11:02;;;;;;;0.30;0.30;;;4.40;99.90;;;;;;5033861;28;20943;-86
2021/11/22 07:13:32;;;;;;;0.40;0.40;;;4.40;99.90;;;;;;5034086;28;20457;-86
2021/11/22 07:15:59;;;;;;;0.30;0.30;;;4.40;99.90;;;;;;5034953;28;20471;-86
2021/11/22 07:18:26;;;;;;;0.30;0.30;;;4.30;99.90;;;;;;5033927;28;20412;-86
2021/11/22 07:20:53;;;;;;;0.30;0.20;;;4.40;99.90;;;;;;5034219;28;20447;-86
2021/11/22 07:23:22;;;;;;;0.33;0.33;;;4.40;99.90;;;;;;5033861;28;20483;-86
2021/11/22 07:25:49;;;;;;;0.57;0.57;;;4.50;99.90;;;;;;5033987;28;21035;-86
2021/11/22 07:28:16;;;;;;;0.30;0.30;;;4.50;99.90;;;;;;5034022;28;20450;-86
2021/11/22 07:30:44;;;;;;;0.30;0.20;;;4.40;99.90;;;;;;5034374;28;20449;-86
2021/11/22 07:33:11;;;;;;;0.30;0.20;;;4.40;99.90;;;;;;5034076;28;20454;-86
2021/11/22 07:35:38;;;;;;;0.30;0.20;;;4.30;99.90;;;;;;5033939;28;20834;-86
2021/11/22 07:38:05;;;;;;;0.30;0.20;;;4.50;99.90;;;;;;5033768;28;20935;-86
2021/11/22 07:40:32;;;;;;;0.30;0.20;;;4.40;99.90;;;;;;5033950;28;20439;-86
2021/11/22 07:42:59;;;;;;;0.30;0.20;;;4.40;99.90;;;;;;5033750;28;20443;-86
2021/11/22 07:45:26;;;;;;;0.30;0.30;;;4.40;99.90;;;;;;5033988;28;20474;-86
2021/11/22 07:47:55;;;;;;;0.30;0.20;;;4.40;99.90;;;;;;5033585;28;20442;-86
2021/11/22 07:50:24;;;;;;;0.40;0.40;;;4.40;99.90;;;;;;5033547;28;20463;-86
2021/11/22 07:52:52;;;;;;;0.30;0.30;;;4.50;99.90;;;;;;5033566;28;20453;-86
2021/11/22 07:55:21;;;;;;;0.50;0.50;;;4.50;99.90;;;;;;5033042;28;20467;-85
2021/11/22 07:57:48;;;;;;;0.30;0.30;;;4.50;99.90;;;;;;5033098;28;20450;-85
2021/11/22 08:00:17;;;;;;;0.67;0.63;;;4.50;99.90;;;;;;5033147;28;20410;-86
2021/11/22 08:02:43;;;;;;;0.30;0.30;;;4.60;99.90;;;;;;5033224;28;20461;-85
2021/11/22 08:05:12;;;;;;;0.30;0.30;;;4.60;99.90;;;;;;5033197;28;20494;-86
2021/11/22 08:07:41;;;;;;;0.30;0.30;;;4.60;99.90;;;;;;5033304;28;20815;-86
2021/11/22 08:10:23;;;;;;;0.57;0.40;;;4.60;99.90;;;;;;5033380;28;20509;-86
2021/11/22 08:12:51;;;;;;;0.30;0.20;;;4.70;99.90;;;;;;5033326;28;20438;-85
2021/11/22 08:15:18;;;;;;;0.43;0.43;;;4.70;99.90;;;;;;5033688;28;20871;-86
2021/11/22 08:17:44;;;;;;;0.70;0.70;;;4.70;99.90;;;;;;5033229;28;20544;-85
2021/11/22 08:20:14;;;;;;;0.77;0.30;;;4.70;99.90;;;;;;5032932;28;20545;-85
2021/11/22 08:22:41;;;;;;;0.30;0.20;;;4.70;99.90;;;;;;5032902;28;20478;-85
2021/11/22 08:25:10;;;;;;;0.30;0.20;;;4.60;99.90;;;;;;5032738;28;21032;-85
2021/11/22 08:27:37;;;;;;;0.30;0.30;;;4.80;99.90;;;;;;5033154;28;20443;-85
2021/11/22 08:30:07;;;;;;;0.30;0.20;;;4.80;99.90;;;;;;5032839;28;20435;-85
2021/11/22 08:32:34;;;;;;;0.30;0.30;;;4.70;99.90;;;;;;5033108;28;20427;-86
2021/11/22 08:35:01;;;;;;;0.30;0.20;;;4.80;99.90;;;;;;5033010;28;20470;-85
2021/11/22 08:37:29;;;;;;;0.47;0.47;;;4.80;99.90;;;;;;5033027;28;20461;-85
2021/11/22 08:39:57;;;;;;;0.30;0.20;;;4.80;99.90;;;;;;5035017;28;20820;-85
2021/11/22 08:42:23;;;;;;;0.30;0.30;;;4.80;99.90;;;;;;5036667;28;20434;-85
2021/11/22 08:44:51;;;;;;;0.30;0.30;;;4.90;99.90;;;;;;5036749;28;20496;-85
2021/11/22 08:47:18;;;;;;;0.40;0.40;;;4.90;99.90;;;;;;5036838;28;20454;-85
2021/11/22 08:49:45;;;;;;;0.30;0.30;;;4.90;99.90;;;;;;5036745;28;20457;-85
2021/11/22 08:52:12;;;;;;;0.30;0.20;;;5.00;99.90;;;;;;5036523;28;20438;-82
2021/11/22 08:54:40;;;;;;;0.30;0.20;;;5.00;99.90;;;;;;5036254;28;20470;-82
2021/11/22 08:57:08;;;;;;;0.30;0.30;;;5.00;99.90;;;;;;5036636;28;20926;-82
2021/11/22 08:59:35;;;;;;;0.30;0.20;;;5.00;99.90;;;;;;5036531;28;20799;-87
2021/11/22 09:02:02;;;;;;;0.30;0.20;;;5.00;99.90;;;;;;5037055;28;20435;-87
2021/11/22 09:04:29;;;;;;;1.70;0.30;;;5.00;99.90;;;;;;5036745;28;20497;-87
2021/11/22 09:06:56;;;;;;;0.30;0.20;;;5.00;99.90;;;;;;5037687;28;20446;-88
2021/11/22 09:09:23;;;;;;;0.50;0.50;;;5.00;99.90;;;;;;5036827;28;20434;-88
2021/11/22 09:11:51;;;;;;;0.30;0.30;;;5.10;99.90;;;;;;5036779;28;20439;-87
2021/11/22 09:14:18;;;;;;;0.30;0.20;;;5.10;99.90;;;;;;5036416;28;20477;-87
2021/11/22 09:16:45;;;;;;;0.30;0.20;;;5.10;99.90;;;;;;5037371;28;20830;-87
2021/11/22 09:19:14;;;;;;;0.50;0.50;;;5.10;99.90;;;;;;5036701;28;20453;-87
2021/11/22 09:21:41;;;;;;;0.30;0.30;;;5.00;99.90;;;;;;5036184;28;20438;-87
2021/11/22 09:24:08;;;;;;;0.30;0.20;;;5.00;99.90;;;;;;5036416;28;20832;-89
2021/11/22 09:26:36;;;;;;;0.30;0.20;;;5.10;99.90;;;;;;5036728;28;20446;-88
2021/11/22 09:29:05;;;;;;;0.30;0.30;;;5.10;99.90;;;;;;5036506;28;20450;-90
2021/11/22 09:31:32;;;;;;;0.30;0.20;;;5.10;99.90;;;;;;5036406;28;20465;-87
2021/11/22 09:33:59;;;;;;;1.40;0.40;;;5.10;99.90;;;;;;5036158;28;20469;-87
2021/11/22 09:36:27;;;;;;;0.30;0.20;;;5.10;99.90;;;;;;5036440;28;20455;-89
2021/11/22 09:38:54;;;;;;;0.30;0.20;;;5.20;99.90;;;;;;5036592;28;20462;-88
2021/11/22 09:41:23;;;;;;;0.47;0.30;;;5.10;99.90;;;;;;5036466;28;20434;-88
2021/11/22 09:43:49;;;;;;;0.30;0.20;;;5.10;99.90;;;;;;5036043;28;20458;-90
2021/11/22 09:46:18;;;;;;;0.30;0.30;;;5.10;99.90;;;;;;5036105;28;20463;-88
2021/11/22 09:48:46;;;;;;;1.33;0.47;;;5.20;99.90;;;;;;5036210;28;20450;-87
2021/11/22 09:51:12;;;;;;;0.30;0.30;;;5.20;99.90;;;;;;5034984;28;20450;-87
2021/11/22 09:53:41;;;;;;;0.30;0.30;;;5.20;99.90;;;;;;5035912;28;20949;-87
2021/11/22 09:56:09;;;;;;;0.50;0.50;;;5.20;99.90;;;;;;5036103;28;20485;-87
2021/11/22 09:58:36;;;;;;;0.30;0.20;;;5.20;99.90;;;;;;5035534;28;20489;-87
2021/11/22 10:01:05;;;;;;;0.30;0.20;;;5.10;99.90;;;;;;5036292;28;20453;-88
2021/11/22 10:03:33;;;;;;;0.40;0.37;;;5.10;99.90;;;;;;5036081;28;20533;-88
2021/11/22 10:06:02;;;;;;;1.53;1.43;;;5.10;99.90;;;;;;5035603;28;20454;-88
2021/11/22 10:08:37;;;;;;;0.30;0.20;;;5.10;99.90;;;;;;5035869;28;20516;-87
2021/11/22 10:11:04;;;;;;;0.53;0.53;;;5.00;99.90;;;;;;5037884;28;20441;-88
2021/11/22 10:13:32;;;;;;;0.30;0.30;;;5.10;99.90;;;;;;5037873;28;20447;-88
2021/11/22 10:16:01;;;;;;;0.30;0.30;;;5.10;99.90;;;;;;5035582;28;20478;-87
2021/11/22 10:18:30;;;;;;;1.43;0.60;;;5.10;99.90;;;;;;5035623;28;20454;-87
2021/11/22 10:21:04;;;;;;;0.30;0.30;;;5.10;99.90;;;;;;5035475;28;20809;-87
2021/11/22 10:23:34;;;;;;;0.30;0.30;;;5.10;99.90;;;;;;5035691;28;20435;-87
2021/11/22 10:26:01;;;;;;;0.30;0.20;;;5.10;99.90;;;;;;5035339;28;20483;-89
2021/11/22 10:28:30;;;;;;;0.30;0.30;;;5.10;99.90;;;;;;5035142;28;20455;-87
2021/11/22 10:30:59;;;;;;;0.30;0.30;;;5.10;99.90;;;;;;5034988;28;20970;-87
2021/11/22 10:33:29;;;;;;;0.30;0.20;;;5.10;99.90;;;;;;5035367;28;20457;-87
2021/11/22 10:36:01;;;;;;;0.73;0.73;;;5.20;99.90;;;;;;5035687;28;20803;-88
2021/11/22 10:38:31;;;;;;;0.30;0.30;;;5.30;99.90;;;;;;5035342;28;20504;-87
2021/11/22 10:41:00;;;;;;;0.30;0.20;;;5.30;99.90;;;;;;5035277;28;20451;-87
2021/11/22 10:43:33;;;;;;;0.30;0.30;;;5.20;99.90;;;;;;5035147;28;20443;-89
2021/11/22 10:46:00;;;;;;;0.50;0.50;;;5.30;99.90;;;;;;5035000;28;20482;-88
2021/11/22 10:48:28;;;;;;;0.40;0.40;;;5.30;99.90;;;;;;5034948;28;20454;-87
2021/11/22 10:51:14;;;;;;;0.30;0.20;;;5.30;99.90;;;;;;5035304;28;20446;-87
2021/11/22 10:53:43;;;;;;;0.30;0.20;;;5.40;99.90;;;;;;5036162;28;20512;-89
2021/11/22 10:56:13;;;;;;;0.30;0.20;;;5.40;99.90;;;;;;5034887;28;20419;-87
2021/11/22 10:58:47;;;;;;;0.30;0.30;;;5.30;99.90;;;;;;5034672;28;21049;-88
2021/11/22 11:01:33;;;;;;;0.30;0.30;;;5.30;99.90;;;;;;5035519;28;20450;-87
2021/11/22 11:04:04;;;;;;;0.30;0.20;;;5.30;99.90;;;;;;5034747;28;20470;-87
2021/11/22 11:06:38;;;;;;;0.30;0.30;;;5.30;99.90;;;;;;5034903;28;20431;-90
2021/11/22 11:09:07;;;;;;;0.40;0.30;;;5.30;99.90;;;;;;5034642;28;20457;-88
2021/11/22 11:11:34;;;;;;;0.40;0.40;;;5.20;99.90;;;;;;5034445;28;20439;-88
2021/11/22 11:14:05;;;;;;;0.30;0.30;;;5.20;99.90;;;;;;5034461;28;20490;-87
2021/11/22 11:16:32;;;;;;;0.53;0.30;;;5.20;99.90;;;;;;5034141;28;20407;-87
2021/11/22 11:19:01;;;;;;;0.30;0.30;;;5.20;99.90;;;;;;5034317;28;20816;-88
2021/11/22 11:21:29;;;;;;;0.30;0.30;;;5.20;99.90;;;;;;5034254;28;20431;-87
2021/11/22 11:23:59;;;;;;;0.30;0.20;;;5.20;99.90;;;;;;5034285;28;20463;-88
2021/11/22 11:26:27;;;;;;;0.40;0.40;;;5.30;99.90;;;;;;5034375;28;20813;-87
2021/11/22 11:28:55;;;;;;;0.30;0.27;;;5.30;99.90;;;;;;5034231;28;20435;-86
2021/11/22 11:31:23;;;;;;;1.27;0.67;;;5.30;99.90;;;;;;5033963;28;20418;-87
2021/11/22 11:33:50;;;;;;;0.90;0.90;;;5.30;99.90;;;;;;5034119;28;20434;-87
2021/11/22 11:36:37;;;;;;;0.30;0.20;;;5.30;99.90;;;;;;5034412;28;20419;-87
2021/11/22 11:39:21;;;;;;;0.30;0.30;;;5.40;99.90;;;;;;5033928;28;20928;-87
2021/11/22 11:41:57;;;;;;;0.30;0.20;;;5.40;99.90;;;;;;5033985;28;20415;-88
2021/11/22 11:44:41;;;;;;;0.47;0.40;;;5.40;99.90;;;;;;5034169;28;20472;-88
2021/11/22 11:47:33;;;;;;;0.50;0.50;;;5.40;99.90;;;;;;5034511;28;20809;-89
2021/11/22 11:50:18;;;;;;;7.50;0.80;;;5.30;99.90;;;;;;5034850;28;20443;-90
2021/11/22 11:52:52;;;;;;;0.60;0.60;;;5.30;99.90;;;;;;5034126;28;20522;-87
2021/11/22 11:55:20;;;;;;;0.40;0.40;;;5.30;99.90;;;;;;5033929;28;20980;-87
2021/11/22 11:57:48;;;;;;;0.73;0.73;;;5.20;99.90;;;;;;5033662;28;20414;-87
2021/11/22 12:00:23;;;;;;;0.30;0.20;;;5.20;99.90;;;;;;5033759;28;20418;-88
2021/11/22 12:03:00;;;;;;;0.50;0.50;;;5.20;99.90;;;;;;5033895;28;20476;-88
2021/11/22 12:05:43;;;;;;;0.70;0.60;;;5.20;99.90;;;;;;5034124;28;20536;-89
2021/11/22 12:08:21;;;;;;;0.30;0.20;;;5.30;99.90;;;;;;5034047;28;20407;-88
2021/11/22 12:10:50;;;;;;;0.40;0.30;;;5.30;99.90;;;;;;5033995;28;20411;-89
2021/11/22 12:13:18;;;;;;;0.50;0.43;;;5.30;99.90;;;;;;5034417;28;20430;-89
2021/11/22 12:15:47;;;;;;;0.30;0.20;;;5.30;99.90;;;;;;5037827;28;20993;-89
2021/11/22 12:18:24;;;;;;;0.30;0.30;;;5.30;99.90;;;;;;5038750;28;20422;-89
2021/11/22 12:20:54;;;;;;;0.30;0.30;;;5.30;99.90;;;;;;5038663;28;20430;-89
2021/11/22 12:23:27;;;;;;;0.43;0.40;;;5.30;99.90;;;;;;5038215;28;20407;-90
2021/11/22 12:26:00;;;;;;;0.30;0.30;;;5.20;99.90;;;;;;5038161;28;20528;-89
2021/11/22 12:28:45;;;;;;;0.30;0.30;;;5.20;99.90;;;;;;5038141;28;21080;-90
2021/11/22 12:31:15;;;;;;;0.30;0.30;;;5.30;99.90;;;;;;5038183;28;20441;-90
2021/11/22 12:33:45;;;;;;;0.30;0.27;;;5.20;99.90;;;;;;5038155;28;20441;-89
2021/11/22 12:36:38;;;;;;;0.30;0.20;;;5.20;99.90;;;;;;5037913;28;20439;-89
2021/11/22 12:39:09;;;;;;;0.53;0.53;;;5.10;99.90;;;;;;5038142;28;20435;-90
2021/11/22 12:41:38;;;;;;;0.30;0.20;;;5.00;99.90;;;;;;5038128;28;20412;-90
2021/11/22 12:44:10;;;;;;;0.30;0.30;;;5.00;99.90;;;;;;5037990;28;20504;-89
2021/11/22 12:46:47;;;;;;;0.97;0.90;;;5.00;99.90;;;;;;5037986;28;20474;-89
2021/11/22 12:49:38;;;;;;;0.60;0.50;;;5.00;99.90;;;;;;5037945;28;20450;-88
2021/11/22 12:52:27;;;;;;;0.30;0.30;;;5.00;99.90;;;;;;5038349;28;20470;-89
2021/11/22 12:55:04;;;;;;;0.30;0.20;;;5.10;99.90;;;;;;5030731;28;20479;-89
2021/11/22 12:57:34;;;;;;;0.30;0.30;;;5.10;99.90;;;;;;5037568;28;20448;-88
2021/11/22 13:00:35;;;;;;;0.30;0.30;;;5.10;99.90;;;;;;5037090;28;20826;-90
2021/11/22 13:03:09;;;;;;;0.30;0.30;;;5.10;99.90;;;;;;4938615;29;20483;-91
2021/11/22 13:05:54;;;;;;;0.30;0.30;;;5.20;99.90;;;;;;4941087;29;20517;-88